KSIY/SIY METAR and TAF weather

Enter ICAO airport designator
Station Type Date Time Source
KSIY METAR 2022/12/04 03:53 UTC NOAA

KSIY 040353Z AUTO 34004KT 10SM FEW050 02/00 A2985 RMK AO2 SLP136 T00220000


Station Type Date Time Source
KSIY Decoded METAR 2022/12/04 03:53 UTC NOAA

MONTAGUE SISKIYOU COUNTY, CA, United States (KSIY) 41-46N 122-28W
Dec 03, 2022 - 10:53 PM EST / 2022.12.04 0353 UTC
Wind: from the NNW (340 degrees) at 5 MPH (4 KT):0
Visibility: 10 mile(s):0
Sky conditions: mostly clear
Temperature: 36.0 F (2.2 C)
Dew Point: 32.0 F (0.0 C)
Relative Humidity: 85%
Pressure (altimeter): 29.85 in. Hg (1010 hPa)
ob: KSIY 040353Z AUTO 34004KT 10SM FEW050 02/00 A2985 RMK AO2 SLP136 T00220000
cycle: 4

Station Type Date Time Source
KSIY TAF UTC NOAA

Error!

Example: see airport list